Time;durP1;ratioP1;P1;durP2;ratioP2;P2;SDS_P1;SDS_P2;PMS_P1;PMS_P2;Temp;Humidity;BMP_temperature;BMP_pressure;BME280_temperature;BME280_humidity;BME280_pressure;Samples;Min_cycle;Max_cycle;Signal;HPM_P1;HPM_P2
2022/10/25 00:00:30;;;;;;;;;;;11.00;99.90;;;;;;5014342;28;20355;-75
2022/10/25 00:02:56;;;;;;;;;;;11.00;99.90;;;;;;5013814;28;20390;-75
2022/10/25 00:05:21;;;;;;;;;;;10.90;99.90;;;;;;5045804;28;20359;-76
2022/10/25 00:07:47;;;;;;;;;;;10.90;99.90;;;;;;5018316;28;19967;-74
2022/10/25 00:10:12;;;;;;;;;;;10.90;99.90;;;;;;5055424;28;19953;-75
2022/10/25 00:12:42;;;;;;;;;;;10.80;99.90;;;;;;5045258;28;19910;-76
2022/10/25 00:15:09;;;;;;;;;;;10.90;99.90;;;;;;5045747;28;20000;-75
2022/10/25 00:17:34;;;;;;;;;;;10.80;99.90;;;;;;5012155;28;19987;-76
2022/10/25 00:20:00;;;;;;;;;;;10.80;99.90;;;;;;5045695;28;20639;-76
2022/10/25 00:22:27;;;;;;;;;;;10.80;99.90;;;;;;5045850;28;19964;-74
2022/10/25 00:24:53;;;;;;;;;;;10.80;99.90;;;;;;5044984;28;19941;-75
2022/10/25 00:27:18;;;;;;;;;;;10.80;99.90;;;;;;5045554;28;19956;-75
2022/10/25 00:29:44;;;;;;;;;;;10.70;99.90;;;;;;5009486;28;19928;-75
2022/10/25 00:32:09;;;;;;;;;;;10.80;99.90;;;;;;5013601;28;19914;-74
2022/10/25 00:34:35;;;;;;;;;;;10.80;99.90;;;;;;5012242;28;19917;-74
2022/10/25 00:37:01;;;;;;;;;;;10.80;99.90;;;;;;5014182;28;20260;-75
2022/10/25 00:39:26;;;;;;;;;;;10.80;99.90;;;;;;5012359;28;19910;-74
2022/10/25 00:41:52;;;;;;;;;;;10.70;99.90;;;;;;5044784;28;19909;-75
2022/10/25 00:44:33;;;;;;;;;;;10.80;99.90;;;;;;5012357;28;19921;-75
2022/10/25 00:46:59;;;;;;;;;;;10.80;99.90;;;;;;5045389;28;20376;-75
2022/10/25 00:49:24;;;;;;;;;;;10.80;99.90;;;;;;5045801;28;19910;-75
2022/10/25 00:51:52;;;;;;;;;;;10.80;99.90;;;;;;5011615;28;20404;-75
2022/10/25 00:54:23;;;;;;;;;;;10.80;99.90;;;;;;5013520;28;19916;-75
2022/10/25 00:56:50;;;;;;;;;;;10.80;99.90;;;;;;5011887;28;19910;-74
2022/10/25 00:59:18;;;;;;;;;;;10.80;99.90;;;;;;5013750;28;19910;-74
2022/10/25 01:01:43;;;;;;;;;;;10.80;99.90;;;;;;5013941;28;19910;-75
2022/10/25 01:04:12;;;;;;;;;;;10.70;99.90;;;;;;5017346;28;19909;-74
2022/10/25 01:06:39;;;;;;;;;;;10.70;99.90;;;;;;5016680;28;20330;-75
2022/10/25 01:09:06;;;;;;;;;;;10.70;99.90;;;;;;5016992;28;19909;-74
2022/10/25 01:11:32;;;;;;;;;;;10.80;99.90;;;;;;5017247;28;19916;-74
2022/10/25 01:13:57;;;;;;;;;;;10.80;99.90;;;;;;5016592;28;20274;-74
2022/10/25 01:16:43;;;;;;;;;;;10.80;99.90;;;;;;5017116;28;20430;-74
2022/10/25 01:19:34;;;;;;;;;;;10.80;99.90;;;;;;5016440;28;20000;-74
2022/10/25 01:22:04;;;;;;;;;;;10.70;99.90;;;;;;5016954;28;19909;-74
2022/10/25 01:24:48;;;;;;;;;;;10.80;99.90;;;;;;5016880;28;19929;-74
2022/10/25 01:27:17;;;;;;;;;;;10.80;99.90;;;;;;5017248;28;20321;-74
2022/10/25 01:29:51;;;;;;;;;;;10.80;99.90;;;;;;5047923;28;19921;-74
2022/10/25 01:32:22;;;;;;;;;;;10.70;99.90;;;;;;5016895;28;19917;-74
2022/10/25 01:34:55;;;;;;;;;;;10.80;99.90;;;;;;5015910;28;20282;-74
2022/10/25 01:37:26;;;;;;;;;;;10.70;99.90;;;;;;5016830;28;19920;-74
2022/10/25 01:39:58;;;;;;;;;;;10.80;99.90;;;;;;5015926;28;19913;-74
2022/10/25 01:42:26;;;;;;;;;;;10.80;99.90;;;;;;5016598;28;20326;-74
2022/10/25 01:44:55;;;;;;;;;;;10.70;99.90;;;;;;5017501;28;19918;-74
2022/10/25 01:47:24;;;;;;;;;;;10.70;99.90;;;;;;5019934;28;19980;-74
2022/10/25 01:49:52;;;;;;;;;;;10.70;99.90;;;;;;5015575;28;19909;-75
2022/10/25 01:52:19;;;;;;;;;;;10.70;99.90;;;;;;5016484;28;19910;-74
2022/10/25 01:54:44;;;;;;;;;;;10.70;99.90;;;;;;5015604;28;19916;-74
2022/10/25 01:57:20;;;;;;;;;;;10.70;99.90;;;;;;5016284;28;19910;-74
2022/10/25 02:00:01;;;;;;;;;;;10.80;99.90;;;;;;5015810;28;19910;-74
2022/10/25 02:02:52;;;;;;;;;;;10.80;99.90;;;;;;5016348;28;19909;-74
2022/10/25 02:05:27;;;;;;;;;;;10.80;99.90;;;;;;5014738;28;19917;-74
2022/10/25 02:07:59;;;;;;;;;;;10.90;99.90;;;;;;5015484;28;20063;-74
2022/10/25 02:10:30;;;;;;;;;;;10.90;99.90;;;;;;5015871;28;20283;-73
2022/10/25 02:13:24;;;;;;;;;;;10.90;99.90;;;;;;5014210;28;19916;-74
2022/10/25 02:15:50;;;;;;;;;;;10.90;99.90;;;;;;5010424;28;19961;-73
2022/10/25 02:18:18;;;;;;;;;;;10.90;99.90;;;;;;5016077;28;19956;-74
2022/10/25 02:20:44;;;;;;;;;;;10.90;99.90;;;;;;5015144;28;19917;-74
2022/10/25 02:23:12;;;;;;;;;;;10.90;99.90;;;;;;5015882;28;19916;-74
2022/10/25 02:25:39;;;;;;;;;;;10.90;99.90;;;;;;5015871;28;19917;-74
2022/10/25 02:28:07;;;;;;;;;;;10.90;99.90;;;;;;5015194;28;19917;-75
2022/10/25 02:30:34;;;;;;;;;;;10.90;99.90;;;;;;5025880;28;19921;-74
2022/10/25 02:33:00;;;;;;;;;;;11.00;99.90;;;;;;5017244;28;20472;-74
2022/10/25 02:35:25;;;;;;;;;;;11.00;99.90;;;;;;5050783;28;19913;-74
2022/10/25 02:37:51;;;;;;;;;;;11.00;99.90;;;;;;5035112;28;20266;-75
2022/10/25 02:40:17;;;;;;;;;;;11.00;99.90;;;;;;5036046;28;20340;-74
2022/10/25 02:42:42;;;;;;;;;;;11.00;99.90;;;;;;5034487;28;19915;-75
2022/10/25 02:45:08;;;;;;;;;;;11.00;99.90;;;;;;5050784;28;19924;-75
2022/10/25 02:47:34;;;;;;;;;;;11.00;99.90;;;;;;5034791;28;19909;-74
2022/10/25 02:49:59;;;;;;;;;;;11.00;99.90;;;;;;5034399;28;19909;-75
2022/10/25 02:52:25;;;;;;;;;;;11.00;99.90;;;;;;5035108;28;19917;-75
2022/10/25 02:54:50;;;;;;;;;;;11.00;99.90;;;;;;5034483;28;19913;-74
2022/10/25 02:57:16;;;;;;;;;;;11.00;99.90;;;;;;5035035;28;19910;-74
2022/10/25 02:59:41;;;;;;;;;;;10.90;99.90;;;;;;5034799;28;19909;-75
2022/10/25 03:02:07;;;;;;;;;;;10.90;99.90;;;;;;5034625;28;19917;-75
2022/10/25 03:04:33;;;;;;;;;;;10.90;99.90;;;;;;5034831;28;19956;-74
2022/10/25 03:06:58;;;;;;;;;;;10.90;99.90;;;;;;5034236;28;19909;-74
2022/10/25 03:09:24;;;;;;;;;;;10.90;99.90;;;;;;5034726;28;20000;-74
2022/10/25 03:11:49;;;;;;;;;;;10.80;99.90;;;;;;5049364;28;19909;-74
2022/10/25 03:14:15;;;;;;;;;;;10.80;99.90;;;;;;5035222;28;19955;-74
2022/10/25 03:16:41;;;;;;;;;;;10.80;99.90;;;;;;5034630;28;20008;-74
2022/10/25 03:19:06;;;;;;;;;;;10.80;99.90;;;;;;5033961;28;19913;-74
2022/10/25 03:21:32;;;;;;;;;;;10.80;99.90;;;;;;5034874;28;20274;-75
2022/10/25 03:23:57;;;;;;;;;;;10.90;99.90;;;;;;5033603;28;19910;-74
2022/10/25 03:26:23;;;;;;;;;;;10.90;99.90;;;;;;5034063;28;19916;-75
2022/10/25 03:28:48;;;;;;;;;;;10.80;99.90;;;;;;5034172;28;20265;-74
2022/10/25 03:31:15;;;;;;;;;;;10.90;99.90;;;;;;5034466;28;19921;-74
2022/10/25 03:33:41;;;;;;;;;;;10.90;99.90;;;;;;5034273;28;20381;-74
2022/10/25 03:36:07;;;;;;;;;;;10.80;99.90;;;;;;5033740;28;19913;-74
2022/10/25 03:38:32;;;;;;;;;;;10.80;99.90;;;;;;5033923;28;20358;-74
2022/10/25 03:40:58;;;;;;;;;;;10.90;99.90;;;;;;5049143;28;19916;-74
2022/10/25 03:43:24;;;;;;;;;;;10.80;99.90;;;;;;5034111;28;20359;-75
2022/10/25 03:45:49;;;;;;;;;;;10.80;99.90;;;;;;5033444;28;19939;-74
2022/10/25 03:48:15;;;;;;;;;;;10.90;99.90;;;;;;5034260;28;19952;-74
2022/10/25 03:50:41;;;;;;;;;;;10.90;99.90;;;;;;5034012;28;20289;-74
2022/10/25 03:53:06;;;;;;;;;;;10.80;99.90;;;;;;5048759;28;19913;-74
2022/10/25 03:55:32;;;;;;;;;;;10.90;99.90;;;;;;5033591;28;19909;-73
2022/10/25 03:57:58;;;;;;;;;;;10.90;99.90;;;;;;5033286;28;19948;-74
2022/10/25 04:00:24;;;;;;;;;;;10.90;99.90;;;;;;5033789;28;19948;-74
2022/10/25 04:02:57;;;;;;;;;;;10.90;99.90;;;;;;5048555;28;19984;-75
2022/10/25 04:05:22;;;;;;;;;;;10.80;99.90;;;;;;5033652;28;19971;-75
2022/10/25 04:07:48;;;;;;;;;;;10.80;99.90;;;;;;5033311;28;20331;-73
2022/10/25 04:10:13;;;;;;;;;;;10.70;99.90;;;;;;5034195;28;19913;-74
2022/10/25 04:12:39;;;;;;;;;;;10.70;99.90;;;;;;5033801;28;19909;-74
2022/10/25 04:15:05;;;;;;;;;;;10.70;99.90;;;;;;5032954;28;20321;-74
2022/10/25 04:17:30;;;;;;;;;;;10.60;99.90;;;;;;5033409;28;19913;-74
2022/10/25 04:19:56;;;;;;;;;;;10.60;99.90;;;;;;5032689;28;19910;-75
2022/10/25 04:22:21;;;;;;;;;;;10.50;99.90;;;;;;5033464;28;20005;-75
2022/10/25 04:24:47;;;;;;;;;;;10.50;99.90;;;;;;5033142;28;19917;-75
2022/10/25 04:27:13;;;;;;;;;;;10.40;99.90;;;;;;5033310;28;20259;-76
2022/10/25 04:29:38;;;;;;;;;;;10.40;99.90;;;;;;5033080;28;20363;-74
2022/10/25 04:32:04;;;;;;;;;;;10.40;99.90;;;;;;5032797;28;19909;-75
2022/10/25 04:34:30;;;;;;;;;;;10.30;99.90;;;;;;5032990;28;19909;-74
2022/10/25 04:36:55;;;;;;;;;;;10.30;99.90;;;;;;5014199;28;20286;-75
2022/10/25 04:39:21;;;;;;;;;;;10.20;99.90;;;;;;5033236;28;19919;-74
2022/10/25 04:41:47;;;;;;;;;;;10.20;99.90;;;;;;5033083;28;19931;-75
2022/10/25 04:44:12;;;;;;;;;;;10.10;99.90;;;;;;5032499;28;20306;-74
2022/10/25 04:46:38;;;;;;;;;;;10.10;99.90;;;;;;5032840;28;19979;-74
2022/10/25 04:49:03;;;;;;;;;;;10.10;99.90;;;;;;5032490;28;19909;-74
2022/10/25 04:51:29;;;;;;;;;;;10.00;99.90;;;;;;5032770;28;19916;-74
2022/10/25 04:53:55;;;;;;;;;;;10.00;99.90;;;;;;5032840;28;19921;-75
2022/10/25 04:56:21;;;;;;;;;;;9.90;99.90;;;;;;5032989;28;19999;-75
2022/10/25 04:58:46;;;;;;;;;;;10.00;99.90;;;;;;5032747;28;19909;-75
2022/10/25 05:01:14;;;;;;;;;;;10.00;99.90;;;;;;5032241;28;20389;-75
2022/10/25 05:03:39;;;;;;;;;;;10.00;99.90;;;;;;5032662;28;19913;-75
2022/10/25 05:06:05;;;;;;;;;;;10.00;99.90;;;;;;5032362;28;19971;-75
2022/10/25 05:08:31;;;;;;;;;;;10.00;99.90;;;;;;5032832;28;20378;-75
2022/10/25 05:10:56;;;;;;;;;;;10.00;99.90;;;;;;5032057;28;19967;-75
2022/10/25 05:13:22;;;;;;;;;;;10.00;99.90;;;;;;5032819;28;19909;-75
2022/10/25 05:15:54;;;;;;;;;;;10.10;99.90;;;;;;5032659;28;19913;-73
2022/10/25 05:18:20;;;;;;;;;;;10.00;99.90;;;;;;5032806;28;19916;-74
2022/10/25 05:20:55;;;;;;;;;;;10.00;99.90;;;;;;5033075;28;19909;-74
2022/10/25 05:23:22;;;;;;;;;;;10.00;99.90;;;;;;5032784;28;19913;-75
2022/10/25 05:25:47;;;;;;;;;;;10.00;99.90;;;;;;5032729;28;20393;-74
2022/10/25 05:28:13;;;;;;;;;;;10.00;99.90;;;;;;5032103;28;19906;-75
2022/10/25 05:30:40;;;;;;;;;;;10.00;99.90;;;;;;5032265;28;20275;-75
2022/10/25 05:33:05;;;;;;;;;;;9.90;99.90;;;;;;5031961;28;19909;-75
2022/10/25 05:35:31;;;;;;;;;;;10.00;99.90;;;;;;5032264;28;20014;-74
2022/10/25 05:37:57;;;;;;;;;;;10.00;99.90;;;;;;5031812;28;19909;-75
2022/10/25 05:40:22;;;;;;;;;;;10.00;99.90;;;;;;5032371;28;19916;-74
2022/10/25 05:42:48;;;;;;;;;;;9.90;99.90;;;;;;5032644;28;19910;-75
2022/10/25 05:45:13;;;;;;;;;;;9.90;99.90;;;;;;5031911;28;19993;-75
2022/10/25 05:47:39;;;;;;;;;;;9.90;99.90;;;;;;5033726;28;19959;-75
2022/10/25 05:50:05;;;;;;;;;;;9.90;99.90;;;;;;5035972;28;19909;-75
2022/10/25 05:52:30;;;;;;;;;;;9.80;99.90;;;;;;5036350;28;19955;-75
2022/10/25 05:54:56;;;;;;;;;;;9.80;99.90;;;;;;5035595;28;19909;-75
2022/10/25 05:57:21;;;;;;;;;;;9.80;99.90;;;;;;5044619;28;19913;-75
2022/10/25 05:59:47;;;;;;;;;;;9.80;99.90;;;;;;5055714;28;19916;-74
2022/10/25 06:02:12;;;;;;;;;;;9.80;99.90;;;;;;5055775;28;19909;-74
2022/10/25 06:04:38;;;;;;;;;;;9.80;99.90;;;;;;5055942;28;20349;-75
2022/10/25 06:07:03;;;;;;;;;;;9.80;99.90;;;;;;5055230;28;19908;-75
2022/10/25 06:09:29;;;;;;;;;;;9.80;99.90;;;;;;5055774;28;20373;-75
2022/10/25 06:11:54;;;;;;;;;;;9.80;99.90;;;;;;5055470;28;19990;-74
2022/10/25 06:14:20;;;;;;;;;;;9.80;99.90;;;;;;5053967;28;20000;-75
2022/10/25 06:16:46;;;;;;;;;;;9.80;99.90;;;;;;5055663;28;19909;-74
2022/10/25 06:19:11;;;;;;;;;;;9.90;99.90;;;;;;5055037;28;19915;-74
2022/10/25 06:21:37;;;;;;;;;;;9.90;99.90;;;;;;5055374;28;20247;-75
2022/10/25 06:24:03;;;;;;;;;;;9.90;99.90;;;;;;5054813;28;19996;-74
2022/10/25 06:26:29;;;;;;;;;;;9.90;99.90;;;;;;5055535;28;19917;-74
2022/10/25 06:28:59;;;;;;;;;;;9.90;99.90;;;;;;5060785;28;19909;-74
2022/10/25 06:31:24;;;;;;;;;;;10.00;99.90;;;;;;5062230;28;19921;-74
2022/10/25 06:33:50;;;;;;;;;;;10.00;99.90;;;;;;5055927;28;20331;-74
2022/10/25 06:36:20;;;;;;;;;;;10.00;99.90;;;;;;5038981;28;19913;-75
2022/10/25 06:38:46;;;;;;;;;;;10.10;99.90;;;;;;5017328;28;19916;-74
2022/10/25 06:41:13;;;;;;;;;;;10.00;99.90;;;;;;5034699;28;19909;-74
2022/10/25 06:43:39;;;;;;;;;;;10.10;99.90;;;;;;5034859;28;19963;-74
2022/10/25 06:46:08;;;;;;;;;;;10.00;99.90;;;;;;5034091;28;20332;-74
2022/10/25 06:48:34;;;;;;;;;;;10.10;99.90;;;;;;5017267;28;19909;-74
2022/10/25 06:51:04;;;;;;;;;;;10.10;99.90;;;;;;5032699;28;19931;-75
2022/10/25 06:53:29;;;;;;;;;;;10.10;99.90;;;;;;5035093;28;19970;-74
2022/10/25 06:55:59;;;;;;;;;;;10.20;99.90;;;;;;5034625;28;19909;-74
2022/10/25 06:58:24;;;;;;;;;;;10.20;99.90;;;;;;5047413;28;20061;-74
2022/10/25 07:00:50;;;;;;;;;;;10.20;99.90;;;;;;5054167;28;19962;-74
2022/10/25 07:03:15;;;;;;;;;;;10.20;99.90;;;;;;5036250;28;19909;-74
2022/10/25 07:05:41;;;;;;;;;;;10.20;99.90;;;;;;5054461;28;19928;-74
2022/10/25 07:08:06;;;;;;;;;;;10.30;99.90;;;;;;5054119;28;19915;-75
2022/10/25 07:10:32;;;;;;;;;;;10.30;99.90;;;;;;5054671;28;19909;-75
2022/10/25 07:12:57;;;;;;;;;;;10.30;99.90;;;;;;5054179;28;19908;-74
2022/10/25 07:15:23;;;;;;;;;;;10.30;99.90;;;;;;5053700;28;19909;-75
2022/10/25 07:17:49;;;;;;;;;;;10.40;99.90;;;;;;5054020;28;20458;-73
2022/10/25 07:20:14;;;;;;;;;;;10.40;99.90;;;;;;5054287;28;19948;-75
2022/10/25 07:22:40;;;;;;;;;;;10.50;99.90;;;;;;5055852;28;19912;-74
2022/10/25 07:25:06;;;;;;;;;;;10.50;99.90;;;;;;5053294;28;19917;-75
2022/10/25 07:27:32;;;;;;;;;;;10.60;99.90;;;;;;5054253;28;19909;-75
2022/10/25 07:29:57;;;;;;;;;;;10.60;99.90;;;;;;5035944;28;19921;-74
2022/10/25 07:32:23;;;;;;;;;;;10.70;99.90;;;;;;5053662;28;19909;-75
2022/10/25 07:34:49;;;;;;;;;;;10.80;99.90;;;;;;5036172;28;19916;-75
2022/10/25 07:37:14;;;;;;;;;;;10.90;99.90;;;;;;5053505;28;20302;-75
2022/10/25 07:39:40;;;;;;;;;;;11.00;99.90;;;;;;5036003;28;20109;-73
2022/10/25 07:42:06;;;;;;;;;;;11.00;99.90;;;;;;5053248;28;20416;-73
2022/10/25 07:44:31;;;;;;;;;;;11.10;99.90;;;;;;5052560;28;20289;-74
2022/10/25 07:46:57;;;;;;;;;;;11.10;99.90;;;;;;5054151;28;19915;-74
2022/10/25 07:49:22;;;;;;;;;;;11.20;99.90;;;;;;5051990;28;19905;-74
2022/10/25 07:51:48;;;;;;;;;;;11.20;99.90;;;;;;5053878;28;19909;-74
2022/10/25 07:54:14;;;;;;;;;;;11.30;99.90;;;;;;5053268;28;19909;-75
2022/10/25 07:56:39;;;;;;;;;;;11.30;99.90;;;;;;5054162;28;20007;-75
2022/10/25 07:59:05;;;;;;;;;;;11.40;99.90;;;;;;5053485;28;19920;-75
2022/10/25 08:01:30;;;;;;;;;;;11.40;99.90;;;;;;5053688;28;19971;-74
2022/10/25 08:03:56;;;;;;;;;;;11.40;99.90;;;;;;5053545;28;19916;-74
2022/10/25 08:06:22;;;;;;;;;;;11.50;99.90;;;;;;5052571;28;19928;-75
2022/10/25 08:08:48;;;;;;;;;;;11.50;99.90;;;;;;5035423;28;20362;-74
2022/10/25 08:11:14;;;;;;;;;;;11.50;99.90;;;;;;5052056;28;19909;-74
2022/10/25 08:13:39;;;;;;;;;;;11.50;99.90;;;;;;5053450;28;19909;-76
2022/10/25 08:16:05;;;;;;;;;;;11.50;99.90;;;;;;5052743;28;19909;-74
2022/10/25 08:18:31;;;;;;;;;;;11.60;99.90;;;;;;5053426;28;19913;-74
2022/10/25 08:20:59;;;;;;;;;;;11.60;99.90;;;;;;5053323;28;19908;-74
2022/10/25 08:23:24;;;;;;;;;;;11.60;99.90;;;;;;5052739;28;19940;-74
2022/10/25 08:25:50;;;;;;;;;;;11.70;99.90;;;;;;5053193;28;20108;-74
2022/10/25 08:28:16;;;;;;;;;;;11.70;99.90;;;;;;5052690;28;19908;-75
2022/10/25 08:30:42;;;;;;;;;;;11.80;99.90;;;;;;5028368;28;19922;-74
2022/10/25 08:33:07;;;;;;;;;;;11.80;99.90;;;;;;5012983;28;19910;-76
2022/10/25 08:35:33;;;;;;;;;;;11.90;99.90;;;;;;5013599;28;19910;-75
2022/10/25 08:37:59;;;;;;;;;;;11.90;99.90;;;;;;5013499;28;19916;-75
2022/10/25 08:40:30;;;;;;;;;;;12.00;99.90;;;;;;5012891;28;19913;-74
2022/10/25 08:42:59;;;;;;;;;;;12.00;99.90;;;;;;5012129;28;19909;-75
2022/10/25 08:45:47;;;;;;;;;;;12.10;99.90;;;;;;5012802;28;20040;-75
2022/10/25 08:48:15;;;;;;;;;;;12.10;99.90;;;;;;5004569;28;19910;-75
2022/10/25 08:50:43;;;;;;;;;;;12.10;99.90;;;;;;5013276;28;19914;-75
2022/10/25 08:53:13;;;;;;;;;;;12.20;99.90;;;;;;5011226;28;19909;-76
2022/10/25 08:55:43;;;;;;;;;;;12.20;99.90;;;;;;5013366;28;19910;-75
2022/10/25 08:58:19;;;;;;;;;;;12.30;99.90;;;;;;5012695;28;19909;-75
2022/10/25 09:00:46;;;;;;;;;;;12.40;99.90;;;;;;5013262;28;20237;-75
2022/10/25 09:03:16;;;;;;;;;;;12.50;99.90;;;;;;5013538;28;20227;-76
2022/10/25 09:06:08;;;;;;;;;;;12.60;99.90;;;;;;5012798;28;19924;-76
2022/10/25 09:08:37;;;;;;;;;;;12.60;99.90;;;;;;5008839;28;19932;-76
2022/10/25 09:11:12;;;;;;;;;;;12.70;99.90;;;;;;5013023;28;19921;-76
2022/10/25 09:13:56;;;;;;;;;;;12.80;99.90;;;;;;5013091;28;19910;-76
2022/10/25 09:16:32;;;;;;;;;;;12.80;99.90;;;;;;5012072;28;19992;-74
2022/10/25 09:18:58;;;;;;;;;;;12.90;99.90;;;;;;5012858;28;19910;-76
2022/10/25 09:21:32;;;;;;;;;;;13.00;99.90;;;;;;5012357;28;19979;-75
2022/10/25 09:24:05;;;;;;;;;;;13.00;99.90;;;;;;5016755;28;20387;-76
2022/10/25 09:26:39;;;;;;;;;;;13.10;99.90;;;;;;5016202;28;19974;-76
2022/10/25 09:29:04;;;;;;;;;;;13.20;99.90;;;;;;5015543;28;19910;-76
2022/10/25 09:31:34;;;;;;;;;;;13.30;99.90;;;;;;5048595;28;19932;-75
2022/10/25 09:34:02;;;;;;;;;;;13.30;99.90;;;;;;5056645;28;19908;-76
2022/10/25 09:36:29;;;;;;;;;;;13.40;99.90;;;;;;5055920;28;19996;-75
2022/10/25 09:38:56;;;;;;;;;;;13.50;99.90;;;;;;5056358;28;19917;-76
2022/10/25 09:41:24;;;;;;;;;;;13.50;99.90;;;;;;5055685;28;19913;-76
2022/10/25 09:44:09;;;;;;;;;;;13.60;99.90;;;;;;5055829;28;20003;-75
2022/10/25 09:46:37;;;;;;;;;;;13.60;99.90;;;;;;5056225;28;19917;-76
2022/10/25 09:49:21;;;;;;;;;;;13.60;99.90;;;;;;5055531;28;19909;-76
2022/10/25 09:52:02;;;;;;;;;;;13.70;99.90;;;;;;5055755;28;19909;-76
2022/10/25 09:54:31;;;;;;;;;;;13.70;99.90;;;;;;5055096;28;20007;-76
2022/10/25 09:56:57;;;;;;;;;;;13.80;99.90;;;;;;5055442;28;19909;-76
2022/10/25 09:59:23;;;;;;;;;;;13.80;99.90;;;;;;5054682;28;19931;-78
2022/10/25 10:01:48;;;;;;;;;;;13.90;99.90;;;;;;5055330;28;19955;-75
2022/10/25 10:04:16;;;;;;;;;;;13.90;99.90;;;;;;5054684;28;19916;-76
2022/10/25 10:06:42;;;;;;;;;;;13.90;99.90;;;;;;5055032;28;19996;-76
2022/10/25 10:09:10;;;;;;;;;;;14.00;99.90;;;;;;5055087;28;20093;-77
2022/10/25 10:11:36;;;;;;;;;;;13.90;99.90;;;;;;5055041;28;20378;-75
2022/10/25 10:14:21;;;;;;;;;;;14.00;99.90;;;;;;5055095;28;19994;-76
2022/10/25 10:16:48;;;;;;;;;;;14.00;99.90;;;;;;5055028;28;19917;-75
2022/10/25 10:19:21;;;;;;;;;;;14.00;99.90;;;;;;5037057;28;20003;-76
2022/10/25 10:21:47;;;;;;;;;;;14.00;99.90;;;;;;5055521;28;19988;-76
2022/10/25 10:24:24;;;;;;;;;;;14.00;99.90;;;;;;5053776;28;19948;-77
2022/10/25 10:26:57;;;;;;;;;;;14.00;99.90;;;;;;5054363;28;19909;-76
2022/10/25 10:29:27;;;;;;;;;;;14.10;99.90;;;;;;5054689;28;19910;-76
2022/10/25 10:31:54;;;;;;;;;;;14.10;99.90;;;;;;5055313;28;19920;-76
2022/10/25 10:34:24;;;;;;;;;;;14.10;99.90;;;;;;5035650;28;19916;-76
2022/10/25 10:37:05;;;;;;;;;;;14.10;99.90;;;;;;5055180;28;19909;-76
2022/10/25 10:39:31;;;;;;;;;;;14.10;99.90;;;;;;5054060;28;20477;-77
2022/10/25 10:42:04;;;;;;;;;;;14.20;99.90;;;;;;5054428;28;19915;-76
2022/10/25 10:44:33;;;;;;;;;;;14.30;99.90;;;;;;5053955;28;19916;-75
2022/10/25 10:47:19;;;;;;;;;;;14.30;99.90;;;;;;5053677;28;20354;-76
2022/10/25 10:49:46;;;;;;;;;;;14.40;99.90;;;;;;5053243;28;19915;-76
2022/10/25 10:52:37;;;;;;;;;;;14.40;99.90;;;;;;5054114;28;20377;-76
2022/10/25 10:55:03;;;;;;;;;;;14.50;99.90;;;;;;5051017;28;19909;-76
2022/10/25 10:57:31;;;;;;;;;;;14.60;99.90;;;;;;5035505;28;19909;-77
2022/10/25 10:59:57;;;;;;;;;;;14.60;99.90;;;;;;5036969;28;19909;-76
2022/10/25 11:02:39;;;;;;;;;;;14.60;99.90;;;;;;5054181;28;20008;-76
2022/10/25 11:05:23;;;;;;;;;;;14.70;99.90;;;;;;5036752;28;20278;-77
2022/10/25 11:07:58;;;;;;;;;;;14.80;99.90;;;;;;5054624;28;19909;-77
2022/10/25 11:10:25;;;;;;;;;;;14.80;99.90;;;;;;5052766;28;19909;-76
2022/10/25 11:13:06;;;;;;;;;;;14.90;99.90;;;;;;5054431;28;19913;-77
2022/10/25 11:15:54;;;;;;;;;;;14.90;99.90;;;;;;5054173;28;19936;-76
2022/10/25 11:18:29;;;;;;;;;;;15.00;99.90;;;;;;5042706;28;20054;-75
2022/10/25 11:21:13;;;;;;;;;;;15.00;99.90;;;;;;5054184;28;19913;-76
2022/10/25 11:23:48;;;;;;;;;;;15.10;99.90;;;;;;5053601;28;19908;-75
2022/10/25 11:26:19;;;;;;;;;;;15.10;99.90;;;;;;5036187;28;20034;-76
2022/10/25 11:28:52;;;;;;;;;;;15.10;99.90;;;;;;5054375;28;19916;-75
2022/10/25 11:31:29;;;;;;;;;;;15.10;99.90;;;;;;5052942;28;19952;-76
2022/10/25 11:34:16;;;;;;;;;;;15.10;99.90;;;;;;5053732;28;20317;-76
2022/10/25 11:36:49;;;;;;;;;;;15.10;99.90;;;;;;5054430;28;19920;-75
2022/10/25 11:39:14;;;;;;;;;;;15.20;99.90;;;;;;5053975;28;19943;-75
2022/10/25 11:41:44;;;;;;;;;;;15.20;99.90;;;;;;5052936;28;19948;-76
2022/10/25 11:44:09;;;;;;;;;;;15.20;99.90;;;;;;5053127;28;19916;-75
2022/10/25 11:46:44;;;;;;;;;;;15.20;99.90;;;;;;5051979;28;19917;-75
2022/10/25 11:49:22;;;;;;;;;;;15.20;99.90;;;;;;5052745;28;19916;-76
2022/10/25 11:51:54;;;;;;;;;;;15.20;99.90;;;;;;5053965;28;19916;-75
2022/10/25 11:54:46;;;;;;;;;;;15.10;99.90;;;;;;5053113;28;19978;-76
2022/10/25 11:57:20;;;;;;;;;;;15.10;99.90;;;;;;5023347;28;19909;-76
2022/10/25 11:59:53;;;;;;;;;;;15.00;99.90;;;;;;5053814;28;19909;-77
2022/10/25 12:02:19;;;;;;;;;;;15.00;99.90;;;;;;5052887;28;19913;-76
2022/10/25 12:05:23;;;;;;;;;;;15.00;99.90;;;;;;5053055;28;19917;-76
2022/10/25 12:08:09;;;;;;;;;;;15.00;99.90;;;;;;4972669;28;20000;-75
2022/10/25 12:10:37;;;;;;;;;;;15.10;99.90;;;;;;4965284;28;19914;-76
2022/10/25 12:13:14;;;;;;;;;;;15.10;99.90;;;;;;4972513;28;19957;-75
2022/10/25 12:15:41;;;;;;;;;;;15.10;99.90;;;;;;4971876;28;19911;-74
2022/10/25 12:18:11;;;;;;;;;;;15.20;99.90;;;;;;4972397;28;19953;-76
2022/10/25 12:20:37;;;;;;;;;;;15.30;99.90;;;;;;4959246;28;19915;-77
2022/10/25 12:23:04;;;;;;;;;;;15.30;99.90;;;;;;4952793;28;19914;-75
2022/10/25 12:25:31;;;;;;;;;;;15.40;99.90;;;;;;4952316;28;19918;-76
2022/10/25 12:28:15;;;;;;;;;;;15.40;99.90;;;;;;4952877;28;20034;-77
2022/10/25 12:30:41;;;;;;;;;;;15.50;99.90;;;;;;4951000;28;19969;-77
2022/10/25 12:33:10;;;;;;;;;;;15.50;99.90;;;;;;4951686;29;19945;-76
2022/10/25 12:35:41;;;;;;;;;;;15.60;99.90;;;;;;4951000;28;19911;-77
2022/10/25 12:38:11;;;;;;;;;;;15.60;99.90;;;;;;4977482;28;19909;-77
2022/10/25 12:40:40;;;;;;;;;;;15.60;99.90;;;;;;5031918;28;20410;-75
2022/10/25 12:43:38;;;;;;;;;;;15.60;99.90;;;;;;5032741;28;19909;-76
2022/10/25 12:46:24;;;;;;;;;;;15.60;99.90;;;;;;4998505;28;20271;-76
2022/10/25 12:48:52;;;;;;;;;;;15.60;99.90;;;;;;5031180;28;19913;-76
2022/10/25 12:51:27;;;;;;;;;;;15.50;99.90;;;;;;5014362;28;20001;-76
2022/10/25 12:54:10;;;;;;;;;;;15.50;99.90;;;;;;5032026;28;19909;-76
2022/10/25 12:56:54;;;;;;;;;;;15.50;99.90;;;;;;5031050;28;19909;-76
2022/10/25 12:59:20;;;;;;;;;;;15.50;99.90;;;;;;5031361;28;19909;-77
2022/10/25 13:01:45;;;;;;;;;;;15.40;99.90;;;;;;5032491;28;19970;-76
2022/10/25 13:04:11;;;;;;;;;;;15.50;99.90;;;;;;5031933;28;19999;-77
2022/10/25 13:06:39;;;;;;;;;;;15.60;99.90;;;;;;5031659;28;20012;-77
2022/10/25 13:09:07;;;;;;;;;;;15.60;99.90;;;;;;5032009;28;20286;-77
2022/10/25 13:11:34;;;;;;;;;;;15.80;99.90;;;;;;5013914;28;19910;-78
2022/10/25 13:14:00;;;;;;;;;;;15.80;99.90;;;;;;5031621;28;20355;-78
2022/10/25 13:16:30;;;;;;;;;;;16.00;99.90;;;;;;5031575;28;20240;-78
2022/10/25 13:19:22;;;;;;;;;;;16.00;99.90;;;;;;5031965;28;19916;-78
2022/10/25 13:21:51;;;;;;;;;;;16.10;99.90;;;;;;5028713;28;19968;-77
2022/10/25 13:24:35;;;;;;;;;;;16.10;99.90;;;;;;5031616;28;20023;-78
2022/10/25 13:27:13;;;;;;;;;;;16.10;99.90;;;;;;5032295;28;20007;-75
2022/10/25 13:29:41;;;;;;;;;;;16.10;99.90;;;;;;5031431;28;20102;-76
2022/10/25 13:32:12;;;;;;;;;;;16.10;99.90;;;;;;5031530;28;20335;-77
2022/10/25 13:34:38;;;;;;;;;;;16.10;99.90;;;;;;5049413;28;19963;-74
2022/10/25 13:37:04;;;;;;;;;;;16.10;99.90;;;;;;5052918;28;20431;-76
2022/10/25 13:39:32;;;;;;;;;;;16.20;99.90;;;;;;5050912;28;19932;-76
2022/10/25 13:42:09;;;;;;;;;;;16.10;99.90;;;;;;5051583;28;19909;-77
2022/10/25 13:44:47;;;;;;;;;;;16.20;99.90;;;;;;5050886;28;20387;-76
2022/10/25 13:47:27;;;;;;;;;;;16.20;99.90;;;;;;5050880;28;20115;-76
2022/10/25 13:49:52;;;;;;;;;;;16.20;99.90;;;;;;5051287;28;19915;-75
2022/10/25 13:52:29;;;;;;;;;;;16.20;99.90;;;;;;5051338;28;19986;-76
2022/10/25 13:54:55;;;;;;;;;;;16.20;99.90;;;;;;5033334;28;20334;-76
2022/10/25 13:57:39;;;;;;;;;;;16.20;99.90;;;;;;5050688;28;19917;-75
2022/10/25 14:00:10;;;;;;;;;;;16.20;99.90;;;;;;5050224;28;19909;-75
2022/10/25 14:02:55;;;;;;;;;;;16.20;99.90;;;;;;5050979;28;19993;-77
2022/10/25 14:05:40;;;;;;;;;;;16.30;99.90;;;;;;5050982;28;19936;-76
2022/10/25 14:08:10;;;;;;;;;;;16.20;99.90;;;;;;5050663;28;19909;-76
2022/10/25 14:10:35;;;;;;;;;;;16.20;99.90;;;;;;5053608;28;20011;-75
2022/10/25 14:13:06;;;;;;;;;;;16.20;99.90;;;;;;5055069;28;19917;-75
2022/10/25 14:15:38;;;;;;;;;;;16.10;99.90;;;;;;5036262;28;19924;-75
2022/10/25 14:18:11;;;;;;;;;;;16.10;99.90;;;;;;5054495;28;19909;-76
2022/10/25 14:20:37;;;;;;;;;;;16.00;99.90;;;;;;5054225;28;19966;-75
2022/10/25 14:23:05;;;;;;;;;;;16.00;99.90;;;;;;5054548;28;20004;-76
2022/10/25 14:25:34;;;;;;;;;;;16.00;99.90;;;;;;5036244;28;20354;-75
2022/10/25 14:28:04;;;;;;;;;;;16.00;99.90;;;;;;5054465;28;19909;-76
2022/10/25 14:30:30;;;;;;;;;;;15.90;99.90;;;;;;5053845;28;20370;-76